| time (UTC) | temp F | wind direction | speed knots | gust knots | rain 1hr in | rain 24hr in | rain mn in | humidity % | barometer mb |
| 20260507081422 | 68 | 113 | 0.0 | 0.0 | 0.00 | 0.20 | 0.12 | 68 | 1014.7 |
| 20260507080414 | 67 | 113 | 0.0 | 1.7 | 0.00 | 0.20 | 0.12 | 68 | 1014.7 |
| 20260507075409 | 66 | 165 | 1.7 | 1.7 | 0.00 | 0.20 | 0.12 | 70 | 1014.7 |
| 20260507074352 | 64 | 119 | 0.0 | 0.0 | 0.00 | 0.20 | 0.12 | 74 | 1014.7 |
| 20260507073338 | 63 | 13 | 0.0 | 0.0 | 0.00 | 0.20 | 0.12 | 77 | 1014.7 |
| 20260507071326 | 61 | 12 | 0.0 | 0.0 | 0.00 | 0.20 | 0.12 | 82 | 1014.7 |
| 20260507065235 | 60 | 12 | 0.0 | 0.0 | 0.00 | 0.20 | 0.12 | 83 | 1014.7 |
| 20260507062157 | 60 | 110 | 0.0 | 0.0 | 0.00 | 0.20 | 0.12 | 86 | 1014.7 |
| 20260507060124 | 58 | 129 | 0.0 | 0.0 | 0.00 | 0.20 | 0.12 | 91 | 1014.7 |
| 20260507055111 | 57 | 129 | 0.0 | 0.0 | 0.00 | 0.20 | 0.12 | 91 | 1014.7 |
| 20260507054053 | 57 | 107 | 0.0 | 0.0 | 0.00 | 0.20 | 0.12 | 92 | 1014.7 |
| 20260507053049 | 56 | 107 | 0.0 | 0.0 | 0.00 | 0.20 | 0.12 | 92 | 1014.7 |
| 20260507052039 | 56 | 107 | 0.0 | 0.0 | 0.00 | 0.20 | 0.12 | 92 | 1014.7 |
| 20260507051029 | 56 | 107 | 0.0 | 0.0 | 0.00 | 0.20 | 0.12 | 92 | 1014.7 |
| 20260507044940 | 56 | 107 | 0.0 | 0.0 | 0.00 | 0.20 | 0.12 | 92 | 1014.7 |
| 20260507043926 | 56 | 107 | 0.0 | 0.0 | 0.00 | 0.20 | 0.12 | 92 | 1014.7 |
| 20260507042910 | 56 | 107 | 0.0 | 0.0 | 0.00 | 0.20 | 0.12 | 91 | 1014.7 |
| 20260507041843 | 56 | 107 | 0.0 | 0.0 | 0.00 | 0.20 | 0.12 | 91 | 1014.7 |
| 20260507040838 | 56 | 107 | 0.0 | 0.0 | 0.00 | 0.20 | 0.12 | 91 | 1014.7 |
| 20260507035832 | 56 | 107 | 0.0 | 0.0 | 0.00 | 0.20 | 0.12 | 91 | 1014.7 |
| 20260507034821 | 56 | 107 | 0.0 | 0.0 | 0.00 | 0.20 | 0.12 | 91 | 1014.7 |
| 20260507033805 | 56 | 107 | 0.0 | 0.0 | 0.00 | 0.20 | 0.12 | 91 | 1014.7 |
| 20260507031725 | 56 | 107 | 0.0 | 0.0 | 0.00 | 0.20 | 0.12 | 91 | 1014.7 |
| 20260507030721 | 56 | 107 | 0.0 | 0.0 | 0.00 | 0.20 | 0.12 | 91 | 1014.7 |
| 20260507025657 | 56 | 107 | 0.0 | 0.0 | 0.00 | 0.20 | 0.12 | 91 | 1013.7 |
| 20260507024642 | 56 | 138 | 0.0 | 0.0 | 0.00 | 0.20 | 0.12 | 91 | 1013.7 |
| 20260507023626 | 56 | 138 | 0.0 | 0.0 | 0.01 | 0.20 | 0.12 | 91 | 1014.7 |
| 20260507021545 | 56 | 138 | 0.0 | 0.0 | 0.01 | 0.20 | 0.12 | 91 | 1014.7 |
| 20260507020540 | 56 | 138 | 0.0 | 0.0 | 0.01 | 0.20 | 0.12 | 91 | 1013.7 |
| 20260507015524 | 56 | 138 | 0.0 | 0.0 | 0.01 | 0.20 | 0.12 | 90 | 1013.7 |
| 20260507014511 | 56 | 150 | 0.0 | 0.0 | 0.02 | 0.20 | 0.12 | 90 | 1013.7 |
| 20260507012440 | 56 | 143 | 0.0 | 0.0 | 0.01 | 0.19 | 0.11 | 90 | 1013.7 |
| 20260507010421 | 56 | 144 | 0.0 | 4.3 | 0.04 | 0.19 | 0.11 | 90 | 1013.7 |
| 20260507005407 | 56 | 164 | 3.5 | 7.0 | 0.06 | 0.19 | 0.11 | 90 | 1013.7 |
| 20260507004401 | 56 | 140 | 4.3 | 7.8 | 0.06 | 0.18 | 0.10 | 91 | 1013.7 |
| 20260507003356 | 56 | 138 | 1.7 | 8.7 | 0.07 | 0.18 | 0.10 | 91 | 1013.7 |
| 20260507002351 | 56 | 195 | 1.7 | 5.2 | 0.07 | 0.18 | 0.10 | 91 | 1013.7 |
| 20260507001347 | 56 | 165 | 0.0 | 1.7 | 0.07 | 0.17 | 0.09 | 91 | 1014.7 |
| 20260507000343 | 57 | 145 | 0.9 | 7.0 | 0.04 | 0.14 | 0.06 | 91 | 1014.7 |
| 20260506235339 | 57 | 186 | 1.7 | 2.6 | 0.03 | 0.13 | 0.05 | 91 | 1014.7 |
| 20260506234322 | 57 | 140 | 0.0 | 0.0 | 0.02 | 0.12 | 0.04 | 91 | 1014.7 |
| 20260506233320 | 57 | 102 | 0.0 | 0.0 | 0.02 | 0.11 | 0.03 | 90 | 1014.7 |
| 20260506232301 | 57 | 101 | 0.0 | 0.0 | 0.03 | 0.11 | 0.03 | 90 | 1014.7 |
| 20260506231240 | 57 | 101 | 0.0 | 0.0 | 0.02 | 0.10 | 0.02 | 90 | 1014.7 |
| 20260506230159 | 57 | 101 | 0.0 | 0.0 | 0.02 | 0.10 | 0.02 | 90 | 1014.7 |
| 20260506225159 | 57 | 101 | 0.0 | 0.0 | 0.03 | 0.10 | 0.02 | 89 | 1014.7 |
| 20260506224151 | 57 | 182 | 0.0 | 0.0 | 0.03 | 0.10 | 0.02 | 89 | 1014.7 |
| 20260506223137 | 57 | 184 | 0.0 | 0.0 | 0.02 | 0.08 | 0.00 | 89 | 1014.7 |
| 20260506222126 | 57 | 184 | 0.0 | 0.9 | 0.03 | 0.08 | 0.00 | 89 | 1014.7 |
| 20260506221057 | 57 | 154 | 0.0 | 0.0 | 0.04 | 0.08 | 0.00 | 89 | 1013.7 |
| 20260506220105 | 57 | 154 | 0.0 | 0.0 | 0.05 | 0.08 | 0.00 | 89 | 1013.7 |
| 20260506215045 | 57 | 154 | 0.0 | 0.0 | 0.04 | 0.07 | 0.10 | 89 | 1014.7 |
| 20260506214035 | 58 | 165 | 0.0 | 4.3 | 0.04 | 0.07 | 0.10 | 88 | 1013.7 |
| 20260506213029 | 58 | 162 | 2.6 | 4.3 | 0.03 | 0.06 | 0.09 | 88 | 1013.7 |
| 20260506211025 | 58 | 162 | 1.7 | 4.3 | 0.01 | 0.04 | 0.07 | 87 | 1014.7 |
| 20260506210013 | 58 | 196 | 2.6 | 4.3 | 0.00 | 0.03 | 0.06 | 87 | 1014.7 |
| 20260506205010 | 58 | 151 | 1.7 | 1.7 | 0.00 | 0.03 | 0.06 | 88 | 1014.7 |
| 20260506204005 | 58 | 142 | 0.0 | 0.0 | 0.00 | 0.03 | 0.06 | 89 | 1014.7 |
| 20260506203002 | 58 | 141 | 0.0 | 2.6 | 0.01 | 0.03 | 0.06 | 89 | 1014.7 |
| 20260506201958 | 58 | 141 | 0.0 | 0.0 | 0.01 | 0.03 | 0.06 | 88 | 1013.7 |
| 20260506200943 | 58 | 142 | 0.0 | 1.7 | 0.01 | 0.03 | 0.06 | 88 | 1013.7 |
| 20260506195938 | 58 | 141 | 0.0 | 1.7 | 0.01 | 0.03 | 0.06 | 88 | 1013.7 |
| 20260506193909 | 58 | 145 | 2.6 | 5.2 | 0.01 | 0.03 | 0.06 | 88 | 1013.7 |
| 20260506191902 | 58 | 125 | 1.7 | 5.2 | 0.01 | 0.02 | 0.05 | 86 | 1013.7 |
| 20260506190900 | 59 | 124 | 0.0 | 2.6 | 0.02 | 0.02 | 0.05 | 86 | 1013.7 |
| 20260506185842 | 59 | 118 | 0.0 | 5.2 | 0.02 | 0.02 | 0.05 | 86 | 1013.7 |
| 20260506184841 | 59 | 161 | 4.3 | 6.1 | 0.02 | 0.02 | 0.05 | 86 | 1013.7 |
| 20260506183838 | 60 | 145 | 1.7 | 7.0 | 0.02 | 0.02 | 0.05 | 86 | 1013.7 |
| 20260506182834 | 60 | 163 | 4.3 | 7.0 | 0.02 | 0.02 | 0.05 | 86 | 1013.7 |
| 20260506181830 | 61 | 164 | 5.2 | 12.2 | 0.01 | 0.01 | 0.04 | 84 | 1013.7 |
| 20260506175823 | 62 | 162 | 6.1 | 11.3 | 0.00 | 0.00 | 0.03 | 79 | 1013.7 |
| 20260506174808 | 63 | 165 | 2.6 | 7.8 | 0.00 | 0.00 | 0.03 | 78 | 1013.7 |
| 20260506172800 | 63 | 150 | 1.7 | 7.0 | 0.00 | 0.00 | 0.03 | 76 | 1013.7 |
| 20260506171744 | 64 | 161 | 2.6 | 10.4 | 0.00 | 0.00 | 0.03 | 76 | 1013.7 |
| 20260506170738 | 64 | 198 | 5.2 | 7.0 | 0.00 | 0.00 | 0.03 | 76 | 1013.7 |
| 20260506165735 | 64 | 167 | 5.2 | 8.7 | 0.00 | 0.00 | 0.03 | 76 | 1012.7 |
| 20260506164729 | 64 | 167 | 5.2 | 7.0 | 0.00 | 0.00 | 0.03 | 76 | 1012.7 |
| 20260506163721 | 65 | 148 | 1.7 | 7.0 | 0.00 | 0.00 | 0.03 | 74 | 1012.7 |
| 20260506162722 | 65 | 177 | 1.7 | 8.7 | 0.00 | 0.00 | 0.03 | 73 | 1012.7 |
| 20260506160710 | 65 | 147 | 1.7 | 10.4 | 0.00 | 0.00 | 0.03 | 72 | 1012.7 |
| 20260506155701 | 65 | 193 | 5.2 | 13.0 | 0.00 | 0.00 | 0.03 | 71 | 1012.7 |
| 20260506154645 | 65 | 163 | 3.5 | 14.8 | 0.00 | 0.00 | 0.03 | 70 | 1012.7 |
| 20260506153632 | 65 | 165 | 0.9 | 7.0 | 0.00 | 0.00 | 0.03 | 71 | 1013.7 |
| 20260506152628 | 65 | 197 | 3.5 | 11.3 | 0.00 | 0.00 | 0.03 | 70 | 1012.7 |
| 20260506151626 | 65 | 181 | 7.0 | 11.3 | 0.00 | 0.00 | 0.03 | 70 | 1012.7 |
| 20260506150623 | 65 | 153 | 4.3 | 17.4 | 0.00 | 0.00 | 0.03 | 69 | 1012.7 |
| 20260506145609 | 66 | 178 | 7.8 | 14.8 | 0.00 | 0.00 | 0.03 | 69 | 1012.7 |
| 20260506144605 | 66 | 217 | 7.0 | 13.0 | 0.00 | 0.00 | 0.03 | 68 | 1012.7 |
| 20260506143600 | 66 | 164 | 7.8 | 13.0 | 0.00 | 0.00 | 0.03 | 68 | 1013.7 |
| 20260506142556 | 66 | 165 | 5.2 | 14.8 | 0.00 | 0.00 | 0.03 | 68 | 1013.7 |
| 20260506141543 | 66 | 178 | 7.8 | 17.4 | 0.00 | 0.00 | 0.03 | 68 | 1013.7 |
| 20260506140538 | 66 | 179 | 12.2 | 17.4 | 0.00 | 0.00 | 0.03 | 67 | 1012.7 |
| 20260506135535 | 67 | 192 | 6.1 | 13.0 | 0.00 | 0.00 | 0.03 | 68 | 1012.7 |
| 20260506134529 | 67 | 183 | 5.2 | 14.8 | 0.00 | 0.00 | 0.03 | 66 | 1012.7 |
| 20260506133516 | 68 | 201 | 8.7 | 13.0 | 0.00 | 0.00 | 0.03 | 65 | 1012.7 |
| 20260506132510 | 69 | 164 | 9.6 | 17.4 | 0.00 | 0.00 | 0.03 | 64 | 1012.7 |
| 20260506131456 | 69 | 179 | 3.5 | 14.8 | 0.00 | 0.00 | 0.03 | 62 | 1012.7 |
| 20260506130451 | 68 | 181 | 5.2 | 14.8 | 0.00 | 0.00 | 0.03 | 63 | 1013.7 |
| 20260506125432 | 69 | 178 | 13.9 | 14.8 | 0.00 | 0.00 | 0.03 | 62 | 1013.7 |
| 20260506124427 | 67 | 195 | 5.2 | 14.8 | 0.00 | 0.00 | 0.03 | 64 | 1013.7 |
| 20260506123422 | 68 | 199 | 7.8 | 13.0 | 0.00 | 0.00 | 0.03 | 64 | 1013.7 |
| 20260506115342 | 69 | 199 | 10.4 | 11.3 | 0.00 | 0.00 | 0.03 | 56 | 1013.7 |
| 20260506102542 | 68 | 155 | 7.8 | 13.0 | 0.00 | 0.03 | 0.03 | 61 | 1013.7 |
| 20260506100530 | 67 | 179 | 5.2 | 13.0 | 0.00 | 0.03 | 0.03 | 61 | 1013.7 |
| 20260506095524 | 67 | 145 | 2.6 | 13.0 | 0.00 | 0.03 | 0.03 | 63 | 1013.7 |
| 20260506094520 | 67 | 185 | 7.0 | 12.2 | 0.00 | 0.03 | 0.03 | 64 | 1013.7 |
| 20260506093513 | 67 | 138 | 5.2 | 13.0 | 0.00 | 0.03 | 0.03 | 66 | 1013.7 |
| 20260506092507 | 67 | 134 | 1.7 | 8.7 | 0.00 | 0.03 | 0.03 | 67 | 1013.7 |
| 20260506091501 | 66 | 163 | 5.2 | 11.3 | 0.00 | 0.03 | 0.03 | 66 | 1013.7 |
| 20260506090456 | 66 | 178 | 7.8 | 11.3 | 0.00 | 0.03 | 0.03 | 68 | 1013.7 |
| 20260506085442 | 65 | 212 | 4.3 | 9.6 | 0.00 | 0.03 | 0.03 | 69 | 1013.7 |
| 20260506084436 | 64 | 165 | 7.8 | 7.8 | 0.00 | 0.03 | 0.03 | 71 | 1013.7 |